createdAt,value
2022-08-12T00:00:12.346Z,0.00
2022-08-12T00:01:12.517Z,0.00
2022-08-12T00:02:12.693Z,0.00
2022-08-12T00:03:12.882Z,0.00
2022-08-12T00:04:13.019Z,0.00
2022-08-12T00:05:13.179Z,0.00
2022-08-12T00:06:13.374Z,0.00
2022-08-12T00:07:13.499Z,0.00
2022-08-12T00:08:13.659Z,0.00
2022-08-12T00:09:13.821Z,0.00
2022-08-12T00:10:13.981Z,0.00
2022-08-12T00:11:14.162Z,0.00
2022-08-12T00:12:14.321Z,0.00
2022-08-12T00:13:14.484Z,0.00
2022-08-12T00:14:14.642Z,0.00
2022-08-12T00:15:14.803Z,0.00
2022-08-12T00:16:15.013Z,0.00
2022-08-12T00:17:15.144Z,0.00
2022-08-12T00:18:15.308Z,0.00
2022-08-12T00:19:15.465Z,0.00
2022-08-12T00:20:15.626Z,0.00
2022-08-12T00:21:15.800Z,0.00
2022-08-12T00:22:15.947Z,0.00
2022-08-12T00:23:16.109Z,0.00
2022-08-12T00:24:16.296Z,0.00
2022-08-12T00:25:16.456Z,0.00
2022-08-12T00:26:23.130Z,0.00
2022-08-12T00:27:17.785Z,0.00
2022-08-12T00:28:16.969Z,0.00
2022-08-12T00:29:17.127Z,0.00
2022-08-12T00:30:17.289Z,0.00
2022-08-12T00:31:17.458Z,0.00
2022-08-12T00:32:46.137Z,0.00
2022-08-12T00:33:18.781Z,0.00
2022-08-12T00:34:17.950Z,0.00
2022-08-12T00:35:18.112Z,0.00
2022-08-12T00:36:35.364Z,0.00
2022-08-12T00:37:19.432Z,0.00
2022-08-12T00:38:18.621Z,0.00
2022-08-12T00:39:18.804Z,0.00
2022-08-12T00:40:18.971Z,0.00
2022-08-12T00:41:19.158Z,0.00
2022-08-12T00:42:19.304Z,0.00
2022-08-12T00:43:19.494Z,0.00
2022-08-12T00:44:19.652Z,0.00
2022-08-12T00:45:19.831Z,0.00
2022-08-12T00:46:20.004Z,0.00
2022-08-12T00:47:25.674Z,0.00
2022-08-12T00:48:21.346Z,0.00
2022-08-12T00:49:20.538Z,0.00
2022-08-12T00:50:20.706Z,0.00
2022-08-12T00:51:20.866Z,0.00
2022-08-12T00:52:21.026Z,0.00
2022-08-12T00:53:21.177Z,0.00
2022-08-12T00:54:21.338Z,0.00
2022-08-12T00:55:21.552Z,0.00
2022-08-12T00:56:21.679Z,0.00
2022-08-12T00:57:21.889Z,0.00
2022-08-12T00:58:22.039Z,0.00
2022-08-12T00:59:22.200Z,0.00
2022-08-12T01:00:22.402Z,0.00
2022-08-12T01:01:22.595Z,0.00
2022-08-12T01:02:22.823Z,0.00
2022-08-12T01:03:22.877Z,0.00
2022-08-12T01:04:23.021Z,0.00
2022-08-12T01:05:23.214Z,0.00
2022-08-12T01:06:23.372Z,0.00
2022-08-12T01:07:23.550Z,0.00
2022-08-12T01:08:23.713Z,0.00
2022-08-12T01:09:23.893Z,0.00
2022-08-12T01:10:27.541Z,0.00
2022-08-12T01:11:25.234Z,0.00
2022-08-12T01:12:24.415Z,0.00
2022-08-12T01:13:24.609Z,0.00
2022-08-12T01:14:24.806Z,0.00
2022-08-12T01:15:24.944Z,0.00
2022-08-12T01:16:25.097Z,0.00
2022-08-12T01:17:25.257Z,0.00
2022-08-12T01:18:25.407Z,0.00
2022-08-12T01:19:25.589Z,0.00
2022-08-12T01:20:25.748Z,0.00
2022-08-12T01:21:25.900Z,0.00
2022-08-12T01:22:26.094Z,0.00
2022-08-12T01:23:26.269Z,0.00
2022-08-12T01:24:30.805Z,0.00
2022-08-12T01:25:27.609Z,0.00
2022-08-12T01:26:26.781Z,0.00
2022-08-12T01:27:26.950Z,0.00
2022-08-12T01:28:27.116Z,0.00
2022-08-12T01:29:27.290Z,0.00
2022-08-12T01:30:27.461Z,0.00
2022-08-12T01:31:27.652Z,0.00
2022-08-12T01:32:27.803Z,0.00
2022-08-12T01:33:27.967Z,0.00
2022-08-12T01:34:35.723Z,0.00
2022-08-12T01:35:29.334Z,0.00
2022-08-12T01:36:28.474Z,0.00
2022-08-12T01:37:28.633Z,0.00
2022-08-12T01:38:30.042Z,0.00
2022-08-12T01:39:29.047Z,0.00
2022-08-12T01:40:35.797Z,0.00
2022-08-12T01:41:30.324Z,0.00
2022-08-12T01:42:29.502Z,0.00
2022-08-12T01:43:29.655Z,0.00
2022-08-12T01:44:29.829Z,0.00
2022-08-12T01:45:29.990Z,0.00
2022-08-12T01:46:31.167Z,0.00
2022-08-12T01:47:30.362Z,0.00
2022-08-12T01:48:30.530Z,0.00
2022-08-12T01:49:30.704Z,0.00
2022-08-12T01:50:30.870Z,0.00
2022-08-12T01:52:19.845Z,0.00
2022-08-12T01:52:32.232Z,0.00
2022-08-12T01:53:31.389Z,0.00
2022-08-12T01:54:32.553Z,0.00
2022-08-12T01:55:31.729Z,0.00
2022-08-12T01:56:31.881Z,0.00
2022-08-12T01:57:58.359Z,0.00
2022-08-12T01:58:33.262Z,0.00
2022-08-12T01:59:32.453Z,0.00
2022-08-12T02:00:35.873Z,0.00
2022-08-12T02:01:33.869Z,0.00
2022-08-12T02:02:32.953Z,0.00
2022-08-12T02:03:33.121Z,0.00
2022-08-12T02:04:33.277Z,0.00
2022-08-12T02:05:33.446Z,0.00
2022-08-12T02:06:33.617Z,0.00
2022-08-12T02:07:33.784Z,0.00
2022-08-12T02:08:33.935Z,0.00
2022-08-12T02:09:34.135Z,0.00
2022-08-12T02:10:50.401Z,0.00
2022-08-12T02:11:35.467Z,0.00
2022-08-12T02:12:34.721Z,0.00
2022-08-12T02:13:49.583Z,0.00
2022-08-12T02:14:36.017Z,0.00
2022-08-12T02:15:35.217Z,0.00
2022-08-12T02:16:35.368Z,0.00
2022-08-12T02:17:55.018Z,0.00
2022-08-12T02:18:36.708Z,0.00
2022-08-12T02:19:35.910Z,0.00
2022-08-12T02:20:51.262Z,0.00
2022-08-12T02:21:37.252Z,0.00
2022-08-12T02:22:36.432Z,0.00
2022-08-12T02:23:36.659Z,0.00
2022-08-12T02:24:36.781Z,0.00
2022-08-12T02:25:36.941Z,0.00
2022-08-12T02:26:37.102Z,0.00
2022-08-12T02:27:37.303Z,0.00
2022-08-12T02:28:37.481Z,0.00
2022-08-12T02:29:37.643Z,0.00
2022-08-12T02:30:41.835Z,0.00
2022-08-12T02:31:37.974Z,0.00
2022-08-12T02:32:38.359Z,0.00
2022-08-12T02:33:38.354Z,0.00
2022-08-12T02:34:38.488Z,0.00
2022-08-12T02:35:38.645Z,0.00
2022-08-12T02:36:38.813Z,0.00
2022-08-12T02:37:38.991Z,0.00
2022-08-12T02:38:39.144Z,0.00
2022-08-12T02:39:39.397Z,0.00
2022-08-12T02:40:39.533Z,0.00
2022-08-12T02:41:39.708Z,0.00
2022-08-12T02:42:40.093Z,0.00
2022-08-12T02:43:40.058Z,0.00
2022-08-12T02:44:40.239Z,0.00
2022-08-12T02:45:40.413Z,0.00
2022-08-12T02:46:40.559Z,0.00
2022-08-12T02:47:59.806Z,0.00
2022-08-12T02:48:41.919Z,0.00
2022-08-12T02:49:41.091Z,0.00
2022-08-12T02:50:41.270Z,0.00
2022-08-12T02:51:41.432Z,0.00
2022-08-12T02:52:41.749Z,0.00
2022-08-12T02:53:41.762Z,0.00
2022-08-12T02:54:41.923Z,0.00
2022-08-12T02:55:42.091Z,0.00
2022-08-12T02:56:42.254Z,0.00
2022-08-12T02:57:43.434Z,0.00
2022-08-12T02:58:45.184Z,0.00
2022-08-12T02:59:42.838Z,0.00
2022-08-12T03:00:43.102Z,0.00
2022-08-12T03:01:48.183Z,0.00
2022-08-12T03:02:44.306Z,0.00
2022-08-12T03:03:43.499Z,0.00
2022-08-12T03:04:44.146Z,0.00
2022-08-12T03:05:44.130Z,0.00
2022-08-12T03:06:44.019Z,0.00
2022-08-12T03:07:59.174Z,0.00
2022-08-12T03:08:53.771Z,0.00
2022-08-12T03:10:04.631Z,0.00
2022-08-12T03:10:46.682Z,0.00
2022-08-12T03:11:48.942Z,0.00
2022-08-12T03:12:49.819Z,0.00
2022-08-12T03:13:46.208Z,0.00
2022-08-12T03:14:45.382Z,0.00
2022-08-12T03:15:45.580Z,0.00
2022-08-12T03:16:45.740Z,0.00
2022-08-12T03:17:45.909Z,0.00
2022-08-12T03:18:47.091Z,0.00
2022-08-12T03:20:10.201Z,0.00
2022-08-12T03:20:47.412Z,0.00
2022-08-12T03:22:05.605Z,0.00
2022-08-12T03:22:47.777Z,0.00
2022-08-12T03:23:46.972Z,0.00
2022-08-12T03:24:47.138Z,0.00
2022-08-12T03:25:47.327Z,0.00
2022-08-12T03:26:47.478Z,0.00
2022-08-12T03:27:47.643Z,0.00
2022-08-12T03:28:47.808Z,0.00
2022-08-12T03:29:50.312Z,0.00
2022-08-12T03:30:48.145Z,0.00
2022-08-12T03:31:48.337Z,0.00
2022-08-12T03:32:48.601Z,0.00
2022-08-12T03:34:00.487Z,0.00
2022-08-12T03:34:49.839Z,0.00
2022-08-12T03:35:49.032Z,0.00
2022-08-12T03:36:49.179Z,0.00
2022-08-12T03:37:49.350Z,0.00
2022-08-12T03:38:49.528Z,0.00
2022-08-12T03:39:49.735Z,0.00
2022-08-12T03:40:49.870Z,0.00
2022-08-12T03:41:50.064Z,0.00
2022-08-12T03:42:50.224Z,0.00
2022-08-12T03:43:50.434Z,0.00
2022-08-12T03:44:50.594Z,0.00
2022-08-12T03:45:52.258Z,0.00
2022-08-12T03:46:50.936Z,0.00
2022-08-12T03:47:51.133Z,0.00
2022-08-12T03:48:51.302Z,0.00
2022-08-12T03:49:51.484Z,0.00
2022-08-12T03:50:51.657Z,0.00
2022-08-12T03:51:51.833Z,0.00
2022-08-12T03:52:52.014Z,0.00
2022-08-12T03:53:52.213Z,0.00
2022-08-12T03:54:52.356Z,0.00
2022-08-12T03:55:52.528Z,0.00
2022-08-12T03:56:52.711Z,0.00
2022-08-12T03:57:52.925Z,0.00
2022-08-12T03:58:53.036Z,0.00
2022-08-12T03:59:53.216Z,0.00
2022-08-12T04:00:53.422Z,0.00
2022-08-12T04:01:53.586Z,0.00
2022-08-12T04:02:53.797Z,0.00
2022-08-12T04:03:53.954Z,0.00
2022-08-12T04:04:54.125Z,0.00
2022-08-12T04:05:56.432Z,0.00
2022-08-12T04:06:54.460Z,0.00
2022-08-12T04:07:58.480Z,0.00
2022-08-12T04:08:54.818Z,0.00
2022-08-12T04:09:54.965Z,0.00
2022-08-12T04:10:55.142Z,0.00
2022-08-12T04:11:55.320Z,0.00
2022-08-12T04:12:55.517Z,0.00
2022-08-12T04:13:55.672Z,0.00
2022-08-12T04:14:55.854Z,0.00
2022-08-12T04:15:56.032Z,0.00
2022-08-12T04:16:56.209Z,0.00
2022-08-12T04:18:06.386Z,0.00
2022-08-12T04:18:57.563Z,0.00
2022-08-12T04:19:56.736Z,0.00
2022-08-12T04:20:56.876Z,0.00
2022-08-12T04:22:01.839Z,0.00
2022-08-12T04:22:58.244Z,0.00
2022-08-12T04:23:57.416Z,0.00
2022-08-12T04:24:57.586Z,0.00
2022-08-12T04:25:57.766Z,0.00
2022-08-12T04:26:57.956Z,0.00
2022-08-12T04:27:58.108Z,0.00
2022-08-12T04:28:59.267Z,0.00
2022-08-12T04:30:31.436Z,0.00
2022-08-12T04:30:59.588Z,0.00
2022-08-12T04:31:58.777Z,0.00
2022-08-12T04:32:58.919Z,0.00
2022-08-12T04:33:59.100Z,0.00
2022-08-12T04:34:59.277Z,0.00
2022-08-12T04:35:59.455Z,0.00
2022-08-12T04:36:59.649Z,0.00
2022-08-12T04:38:01.059Z,0.00
2022-08-12T04:38:59.958Z,0.00
2022-08-12T04:40:00.166Z,0.00
2022-08-12T04:41:00.322Z,0.00
2022-08-12T04:42:00.520Z,0.00
2022-08-12T04:43:00.664Z,0.00
2022-08-12T04:44:02.618Z,0.00
2022-08-12T04:45:01.025Z,0.00
2022-08-12T04:46:01.205Z,0.00
2022-08-12T04:47:01.397Z,0.00
2022-08-12T04:48:01.535Z,0.00
2022-08-12T04:49:01.715Z,0.00
2022-08-12T04:50:01.900Z,0.00
2022-08-12T04:51:02.085Z,0.00
2022-08-12T04:52:02.250Z,0.00
2022-08-12T04:53:02.406Z,0.00
2022-08-12T04:54:02.594Z,0.00
2022-08-12T04:55:02.771Z,5.62
2022-08-12T04:56:02.957Z,5.62
2022-08-12T04:57:05.048Z,5.62
2022-08-12T04:58:03.261Z,5.62
2022-08-12T04:59:03.439Z,5.62
2022-08-12T05:00:03.630Z,5.62
2022-08-12T05:01:03.787Z,5.62
2022-08-12T05:02:04.014Z,5.62
2022-08-12T05:03:05.295Z,5.62
2022-08-12T05:04:04.320Z,5.62
2022-08-12T05:05:04.493Z,5.62
2022-08-12T05:06:04.645Z,5.62
2022-08-12T05:07:04.831Z,5.62
2022-08-12T05:08:04.993Z,5.62
2022-08-12T05:09:13.189Z,5.62
2022-08-12T05:10:06.382Z,5.62
2022-08-12T05:11:05.535Z,5.62
2022-08-12T05:12:05.703Z,5.62
2022-08-12T05:13:07.380Z,5.62
2022-08-12T05:14:06.022Z,5.62
2022-08-12T05:15:19.582Z,5.62
2022-08-12T05:16:09.285Z,5.62
2022-08-12T05:17:06.672Z,5.62
2022-08-12T05:18:19.691Z,5.62
2022-08-12T05:19:12.902Z,5.62
2022-08-12T05:20:08.007Z,5.62
2022-08-12T05:21:07.176Z,5.62
2022-08-12T05:22:07.367Z,5.62
2022-08-12T05:23:12.624Z,5.62
2022-08-12T05:24:08.688Z,5.62
2022-08-12T05:25:07.877Z,5.62
2022-08-12T05:26:08.028Z,5.62
2022-08-12T05:27:08.220Z,5.62
2022-08-12T05:28:08.409Z,5.62
2022-08-12T05:30:05.144Z,5.62
2022-08-12T05:30:09.752Z,5.62
2022-08-12T05:31:08.937Z,5.62
2022-08-12T05:32:09.090Z,5.62
2022-08-12T05:33:09.305Z,5.62
2022-08-12T05:34:09.462Z,5.62
2022-08-12T05:35:09.655Z,5.62
2022-08-12T05:36:09.826Z,5.62
2022-08-12T05:37:09.992Z,5.62
2022-08-12T05:38:10.144Z,5.62
2022-08-12T05:39:10.378Z,5.62
2022-08-12T05:40:11.647Z,5.62
2022-08-12T05:41:10.684Z,5.62
2022-08-12T05:42:10.846Z,5.62
2022-08-12T05:43:11.036Z,5.62
2022-08-12T05:44:11.225Z,5.62
2022-08-12T05:45:11.396Z,5.62
2022-08-12T05:46:11.576Z,5.62
2022-08-12T05:47:11.785Z,5.62
2022-08-12T05:48:11.946Z,5.62
2022-08-12T05:49:12.152Z,5.62
2022-08-12T05:50:12.317Z,5.62
2022-08-12T05:51:12.518Z,16.88
2022-08-12T05:52:12.667Z,16.88
2022-08-12T05:53:12.819Z,16.88
2022-08-12T05:54:13.009Z,16.88
2022-08-12T05:55:13.189Z,16.88
2022-08-12T05:56:13.379Z,16.88
2022-08-12T05:57:13.600Z,16.88
2022-08-12T05:58:13.728Z,16.88
2022-08-12T05:59:13.911Z,16.88
2022-08-12T06:00:14.093Z,16.88
2022-08-12T06:02:10.787Z,16.88
2022-08-12T06:02:15.451Z,16.88
2022-08-12T06:03:14.659Z,16.88
2022-08-12T06:04:14.753Z,16.88
2022-08-12T06:05:14.957Z,16.88
2022-08-12T06:06:15.113Z,16.88
2022-08-12T06:07:59.276Z,16.88
2022-08-12T06:08:16.453Z,16.88
2022-08-12T06:09:15.634Z,16.88
2022-08-12T06:10:15.835Z,16.88
2022-08-12T06:11:16.010Z,16.88
2022-08-12T06:12:16.196Z,22.50
2022-08-12T06:13:28.035Z,22.50
2022-08-12T06:14:17.567Z,22.50
2022-08-12T06:15:16.773Z,22.50
2022-08-12T06:16:16.918Z,22.50
2022-08-12T06:17:17.101Z,22.50
2022-08-12T06:18:17.288Z,22.50
2022-08-12T06:19:17.479Z,22.50
2022-08-12T06:20:26.906Z,22.50
2022-08-12T06:21:18.830Z,22.50
2022-08-12T06:22:17.980Z,22.50
2022-08-12T06:23:18.142Z,22.50
2022-08-12T06:24:18.330Z,22.50
2022-08-12T06:25:22.123Z,22.50
2022-08-12T06:26:18.695Z,22.50
2022-08-12T06:27:19.204Z,22.50
2022-08-12T06:28:19.073Z,22.50
2022-08-12T06:30:07.434Z,22.50
2022-08-12T06:30:33.569Z,22.50
2022-08-12T06:31:26.897Z,22.50
2022-08-12T06:32:20.814Z,22.50
2022-08-12T06:33:24.550Z,22.50
2022-08-12T06:35:26.657Z,22.50
2022-08-12T06:35:27.088Z,22.50
2022-08-12T06:36:21.784Z,22.50
2022-08-12T06:37:20.684Z,22.50
2022-08-12T06:38:21.853Z,22.50
2022-08-12T06:39:21.057Z,22.50
2022-08-12T06:40:21.207Z,28.12
2022-08-12T06:41:21.406Z,28.12
2022-08-12T06:42:31.582Z,28.12
2022-08-12T06:43:22.717Z,28.12
2022-08-12T06:44:21.881Z,28.12
2022-08-12T06:45:22.068Z,28.12
2022-08-12T06:46:22.268Z,28.12
2022-08-12T06:47:22.441Z,28.12
2022-08-12T06:48:22.620Z,28.12
2022-08-12T06:49:22.829Z,28.12
2022-08-12T06:50:22.973Z,28.12
2022-08-12T06:51:23.148Z,28.12
2022-08-12T06:52:23.329Z,28.12
2022-08-12T06:53:23.514Z,28.12
2022-08-12T06:54:29.823Z,28.12
2022-08-12T06:55:24.866Z,28.12
2022-08-12T06:56:39.795Z,28.12
2022-08-12T06:57:57.096Z,28.12
2022-08-12T06:58:25.403Z,28.12
2022-08-12T06:59:24.587Z,28.12
2022-08-12T07:00:31.240Z,28.12
2022-08-12T07:01:25.948Z,28.12
2022-08-12T07:02:25.064Z,28.12
2022-08-12T07:03:25.265Z,28.12
2022-08-12T07:04:36.292Z,28.12
2022-08-12T07:05:26.576Z,28.12
2022-08-12T07:06:25.757Z,28.12
2022-08-12T07:07:25.965Z,28.12
2022-08-12T07:08:26.097Z,28.12
2022-08-12T07:10:04.212Z,28.12
2022-08-12T07:10:27.457Z,28.12
2022-08-12T07:11:26.617Z,28.12
2022-08-12T07:12:27.774Z,28.12
2022-08-12T07:13:26.979Z,28.12
2022-08-12T07:14:27.172Z,33.75
2022-08-12T07:15:27.359Z,33.75
2022-08-12T07:16:27.540Z,33.75
2022-08-12T07:17:27.731Z,33.75
2022-08-12T07:18:27.870Z,33.75
2022-08-12T07:19:45.171Z,33.75
2022-08-12T07:20:51.217Z,33.75
2022-08-12T07:22:00.379Z,33.75
2022-08-12T07:22:29.583Z,33.75
2022-08-12T07:23:28.737Z,33.75
2022-08-12T07:24:28.913Z,33.75
2022-08-12T07:25:29.083Z,33.75
2022-08-12T07:26:29.263Z,33.75
2022-08-12T07:27:29.464Z,33.75
2022-08-12T07:28:29.645Z,33.75
2022-08-12T07:30:03.707Z,33.75
2022-08-12T07:30:31.024Z,33.75
2022-08-12T07:31:30.175Z,33.75
2022-08-12T07:32:30.360Z,33.75
2022-08-12T07:33:30.534Z,33.75
2022-08-12T07:34:30.738Z,33.75
2022-08-12T07:35:30.888Z,33.75
2022-08-12T07:36:31.038Z,33.75
2022-08-12T07:37:31.228Z,33.75
2022-08-12T07:38:31.382Z,33.75
2022-08-12T07:39:31.631Z,33.75
2022-08-12T07:40:31.729Z,33.75
2022-08-12T07:41:31.945Z,33.75
2022-08-12T07:42:32.072Z,33.75
2022-08-12T07:43:32.259Z,33.75
2022-08-12T07:44:32.483Z,33.75
2022-08-12T07:45:32.618Z,33.75
2022-08-12T07:46:32.800Z,33.75
2022-08-12T07:47:32.992Z,33.75
2022-08-12T07:48:33.151Z,33.75
2022-08-12T07:49:33.352Z,33.75
2022-08-12T07:50:34.523Z,33.75
2022-08-12T07:51:33.686Z,33.75
2022-08-12T07:52:33.863Z,33.75
2022-08-12T07:53:34.053Z,33.75
2022-08-12T07:54:35.233Z,33.75
2022-08-12T07:55:34.383Z,33.75
2022-08-12T07:56:34.574Z,33.75
2022-08-12T07:57:34.756Z,33.75
2022-08-12T07:58:34.936Z,33.75
2022-08-12T07:59:35.145Z,33.75
2022-08-12T08:00:35.287Z,33.75
2022-08-12T08:01:35.526Z,33.75
2022-08-12T08:02:35.641Z,39.38
2022-08-12T08:03:35.828Z,33.75
2022-08-12T08:04:37.013Z,39.38
2022-08-12T08:05:36.173Z,33.75
2022-08-12T08:06:36.355Z,33.75
2022-08-12T08:07:36.528Z,33.75
2022-08-12T08:08:36.719Z,33.75
2022-08-12T08:09:36.919Z,33.75
2022-08-12T08:10:37.102Z,39.38
2022-08-12T08:11:37.252Z,39.38
2022-08-12T08:12:37.441Z,39.38
2022-08-12T08:13:37.632Z,39.38
2022-08-12T08:14:37.832Z,39.38
2022-08-12T08:16:01.649Z,39.38
2022-08-12T08:16:39.183Z,39.38
2022-08-12T08:17:38.340Z,45.00
2022-08-12T08:18:38.522Z,45.00
2022-08-12T08:20:02.332Z,45.00
2022-08-12T08:20:39.894Z,45.00
2022-08-12T08:21:39.058Z,45.00
2022-08-12T08:22:41.866Z,45.00
2022-08-12T08:23:39.405Z,39.38
2022-08-12T08:24:39.607Z,39.38
2022-08-12T08:25:39.795Z,33.75
2022-08-12T08:26:39.938Z,11.25
2022-08-12T08:27:40.126Z,11.25
2022-08-12T08:28:40.326Z,11.25
2022-08-12T08:29:40.485Z,11.25
2022-08-12T08:30:40.647Z,11.25
2022-08-12T08:31:45.257Z,11.25
2022-08-12T08:32:41.266Z,11.25
2022-08-12T08:34:05.328Z,11.25
2022-08-12T08:34:53.008Z,11.25
2022-08-12T08:35:46.994Z,11.25
2022-08-12T08:36:41.730Z,11.25
2022-08-12T08:37:41.888Z,11.25
2022-08-12T08:38:42.073Z,11.25
2022-08-12T08:39:43.302Z,11.25
2022-08-12T08:40:42.429Z,11.25
2022-08-12T08:42:17.444Z,11.25
2022-08-12T08:42:48.119Z,11.25
2022-08-12T08:43:44.830Z,11.25
2022-08-12T08:44:43.112Z,11.25
2022-08-12T08:45:43.312Z,11.25
2022-08-12T08:46:43.453Z,11.25
2022-08-12T08:47:43.644Z,11.25
2022-08-12T08:48:43.833Z,11.25
2022-08-12T08:49:44.005Z,11.25
2022-08-12T08:50:44.145Z,11.25
2022-08-12T08:51:44.355Z,11.25
2022-08-12T08:52:44.497Z,11.25
2022-08-12T08:53:44.685Z,11.25
2022-08-12T08:54:45.866Z,11.25
2022-08-12T08:56:04.180Z,11.25
2022-08-12T08:56:46.279Z,11.25
2022-08-12T08:57:45.421Z,11.25
2022-08-12T08:58:45.608Z,11.25
2022-08-12T08:59:45.797Z,11.25
2022-08-12T09:00:47.740Z,11.25
2022-08-12T09:01:46.157Z,11.25
2022-08-12T09:02:49.178Z,11.25
2022-08-12T09:05:09.146Z,11.25
2022-08-12T09:05:13.031Z,16.88
2022-08-12T09:06:01.998Z,16.88
2022-08-12T09:06:53.682Z,16.88
2022-08-12T09:07:58.437Z,16.88
2022-08-12T09:08:48.312Z,16.88
2022-08-12T09:10:01.982Z,16.88
2022-08-12T09:10:49.381Z,16.88
2022-08-12T09:12:06.657Z,16.88
2022-08-12T09:15:55.924Z,16.88
2022-08-12T09:16:50.113Z,16.88
2022-08-12T09:17:48.905Z,16.88
2022-08-12T09:18:52.208Z,16.88
2022-08-12T09:19:53.661Z,16.88
2022-08-12T09:20:50.834Z,16.88
2022-08-12T09:21:55.119Z,16.88
2022-08-12T09:22:51.058Z,16.88
2022-08-12T09:23:59.534Z,16.88
2022-08-12T09:24:51.120Z,16.88
2022-08-12T09:25:50.336Z,16.88
2022-08-12T09:26:50.492Z,16.88
2022-08-12T09:28:03.315Z,16.88
2022-08-12T09:28:52.919Z,16.88
2022-08-12T09:30:10.108Z,16.88
2022-08-12T09:30:52.135Z,16.88
2022-08-12T09:32:06.481Z,16.88
2022-08-12T09:33:04.520Z,16.88
2022-08-12T09:34:26.739Z,16.88
2022-08-12T09:34:52.804Z,16.88
2022-08-12T09:36:03.131Z,16.88
2022-08-12T09:37:00.865Z,16.88
2022-08-12T09:37:58.798Z,16.88
2022-08-12T09:38:58.858Z,16.88
2022-08-12T09:40:01.469Z,16.88
2022-08-12T09:41:02.260Z,22.50
2022-08-12T09:42:34.190Z,22.50
2022-08-12T09:43:15.434Z,22.50
2022-08-12T09:44:00.792Z,22.50
2022-08-12T09:45:18.344Z,22.50
2022-08-12T09:46:11.878Z,22.50
2022-08-12T09:46:54.935Z,22.50
2022-08-12T09:47:57.074Z,22.50
2022-08-12T09:48:56.193Z,22.50
2022-08-12T09:49:57.831Z,22.50
2022-08-12T09:50:54.966Z,22.50
2022-08-12T09:51:54.659Z,22.50
2022-08-12T09:52:56.574Z,22.50
2022-08-12T09:54:08.348Z,22.50
2022-08-12T09:54:59.789Z,22.50
2022-08-12T09:56:06.896Z,22.50
2022-08-12T09:57:01.826Z,22.50
2022-08-12T09:58:47.063Z,22.50
2022-08-12T09:59:00.283Z,22.50
2022-08-12T10:00:17.722Z,22.50
2022-08-12T10:00:57.360Z,22.50
2022-08-12T10:02:45.069Z,22.50
2022-08-12T10:02:57.922Z,22.50
2022-08-12T10:04:04.254Z,22.50
2022-08-12T10:04:57.978Z,22.50
2022-08-12T10:06:27.601Z,22.50
2022-08-12T10:06:58.296Z,22.50
2022-08-12T10:07:57.446Z,22.50
2022-08-12T10:08:57.632Z,22.50
2022-08-12T10:09:59.210Z,28.12
2022-08-12T10:10:58.017Z,22.50
2022-08-12T10:12:12.248Z,28.12
2022-08-12T10:13:07.870Z,28.12
2022-08-12T10:13:59.510Z,28.12
2022-08-12T10:14:58.703Z,28.12
2022-08-12T10:16:02.084Z,28.12
2022-08-12T10:17:00.029Z,28.12
2022-08-12T10:18:06.980Z,28.12
2022-08-12T10:19:00.396Z,28.12
2022-08-12T10:20:01.450Z,28.12
2022-08-12T10:20:59.712Z,28.12
2022-08-12T10:21:59.897Z,28.12
2022-08-12T10:23:00.130Z,28.12
2022-08-12T10:24:00.268Z,28.12
2022-08-12T10:25:00.414Z,28.12
2022-08-12T10:26:34.057Z,28.12
2022-08-12T10:27:06.080Z,28.12
2022-08-12T10:28:05.770Z,28.12
2022-08-12T10:29:03.328Z,22.50
2022-08-12T10:30:42.092Z,28.12
2022-08-12T10:31:05.029Z,28.12
2022-08-12T10:32:22.217Z,28.12
2022-08-12T10:33:02.943Z,28.12
2022-08-12T10:34:05.257Z,11.25
2022-08-12T10:35:02.097Z,22.50
2022-08-12T10:36:02.247Z,11.25
2022-08-12T10:37:22.632Z,11.25
2022-08-12T10:38:34.246Z,33.75
2022-08-12T10:39:03.777Z,11.25
2022-08-12T10:40:11.123Z,28.12
2022-08-12T10:41:04.234Z,11.25
2022-08-12T10:42:03.411Z,11.25
2022-08-12T10:43:03.449Z,11.25
2022-08-12T10:44:03.605Z,33.75
2022-08-12T10:45:03.796Z,11.25
2022-08-12T10:46:04.011Z,33.75
2022-08-12T10:48:01.060Z,16.88
2022-08-12T10:48:20.299Z,39.38
2022-08-12T10:50:04.869Z,39.38
2022-08-12T10:50:33.940Z,39.38
2022-08-12T10:52:03.117Z,39.38
2022-08-12T10:52:34.940Z,39.38
2022-08-12T10:53:08.898Z,39.38
2022-08-12T10:54:05.313Z,39.38
2022-08-12T10:55:07.068Z,39.38
2022-08-12T10:56:06.655Z,45.00
2022-08-12T10:57:05.808Z,45.00
2022-08-12T10:58:14.539Z,45.00
2022-08-12T10:59:11.075Z,45.00
2022-08-12T11:00:34.281Z,50.62
2022-08-12T11:01:49.793Z,50.62
2022-08-12T11:04:20.915Z,56.25
2022-08-12T11:04:25.899Z,95.62
2022-08-12T11:04:27.484Z,61.88
2022-08-12T11:07:02.589Z,123.75
2022-08-12T11:07:08.844Z,151.88
2022-08-12T11:08:34.276Z,11.25
2022-08-12T11:08:38.512Z,16.88
2022-08-12T11:09:10.599Z,16.88
2022-08-12T11:10:08.152Z,16.88
2022-08-12T11:11:13.991Z,90.00
2022-08-12T11:12:54.524Z,16.88
2022-08-12T11:13:09.810Z,16.88
2022-08-12T11:14:13.071Z,11.25
2022-08-12T11:15:19.410Z,11.25
2022-08-12T11:16:22.549Z,11.25
2022-08-12T11:17:43.219Z,11.25
2022-08-12T11:18:11.975Z,16.88
2022-08-12T11:19:10.662Z,16.88
2022-08-12T11:20:09.824Z,22.50
2022-08-12T11:21:15.924Z,16.88
2022-08-12T11:22:11.184Z,16.88
2022-08-12T11:23:25.088Z,16.88
2022-08-12T11:24:30.618Z,28.12
2022-08-12T11:25:11.768Z,39.38
2022-08-12T11:26:10.898Z,22.50
2022-08-12T11:27:11.667Z,16.88
2022-08-12T11:28:11.210Z,73.12
2022-08-12T11:29:22.439Z,106.88
2022-08-12T11:30:31.234Z,101.25
2022-08-12T11:31:14.472Z,33.75
2022-08-12T11:32:11.880Z,56.25
2022-08-12T11:33:24.077Z,56.25
2022-08-12T11:34:51.042Z,61.88
2022-08-12T11:35:13.400Z,90.00
2022-08-12T11:36:15.043Z,157.50
2022-08-12T11:37:25.625Z,1513.12
2022-08-12T11:38:13.863Z,2593.12
2022-08-12T11:39:14.035Z,956.25
2022-08-12T11:40:13.200Z,95.62
2022-08-12T11:41:13.377Z,22.50
2022-08-12T11:42:13.524Z,33.75
2022-08-12T11:43:19.213Z,22.50
2022-08-12T11:44:36.225Z,22.50
2022-08-12T11:45:16.513Z,45.00
2022-08-12T11:46:14.243Z,16.88
2022-08-12T11:47:14.432Z,16.88
2022-08-12T11:48:15.433Z,16.88
2022-08-12T11:49:20.490Z,16.88
2022-08-12T11:50:21.428Z,16.88
2022-08-12T11:51:16.160Z,106.88
2022-08-12T11:52:17.574Z,67.50
2022-08-12T11:53:59.358Z,56.25
2022-08-12T11:54:16.652Z,50.62
2022-08-12T11:55:15.827Z,45.00
2022-08-12T11:56:16.976Z,45.00
2022-08-12T11:58:07.389Z,45.00
2022-08-12T11:59:13.549Z,50.62
2022-08-12T12:02:00.914Z,22.50
2022-08-12T12:02:03.067Z,22.50
2022-08-12T12:02:20.585Z,22.50
2022-08-12T12:03:17.306Z,16.88
2022-08-12T12:04:29.190Z,16.88
2022-08-12T12:05:18.563Z,16.88
2022-08-12T12:06:17.714Z,45.00
2022-08-12T12:07:17.895Z,45.00
2022-08-12T12:08:37.613Z,45.00
2022-08-12T12:09:19.252Z,45.00
2022-08-12T12:10:18.445Z,45.00
2022-08-12T12:11:18.598Z,45.00
2022-08-12T12:12:18.759Z,33.75
2022-08-12T12:13:35.192Z,28.12
2022-08-12T12:14:20.086Z,11.25
2022-08-12T12:15:24.685Z,11.25
2022-08-12T12:16:20.433Z,16.88
2022-08-12T12:17:19.595Z,33.75
2022-08-12T12:18:19.785Z,28.12
2022-08-12T12:19:19.956Z,28.12
2022-08-12T12:20:20.150Z,45.00
2022-08-12T12:21:47.492Z,45.00
2022-08-12T12:22:23.060Z,45.00
2022-08-12T12:23:29.074Z,45.00
2022-08-12T12:24:22.531Z,45.00
2022-08-12T12:25:21.426Z,39.38
2022-08-12T12:26:35.403Z,45.00
2022-08-12T12:28:00.685Z,45.00
2022-08-12T12:28:37.753Z,45.00
2022-08-12T12:30:19.122Z,45.00
2022-08-12T12:30:29.618Z,45.00
2022-08-12T12:32:11.843Z,45.00
2022-08-12T12:32:29.465Z,45.00
2022-08-12T12:33:23.456Z,45.00
2022-08-12T12:34:30.387Z,45.00
2022-08-12T12:36:06.420Z,50.62
2022-08-12T12:36:29.314Z,50.62
2022-08-12T12:37:59.092Z,50.62
2022-08-12T12:38:25.426Z,50.62
2022-08-12T12:39:23.586Z,39.38
2022-08-12T12:42:41.620Z,50.62
2022-08-12T12:42:55.940Z,22.50
2022-08-12T12:43:43.127Z,39.38
2022-08-12T12:44:51.008Z,50.62
2022-08-12T12:45:44.559Z,50.62
2022-08-12T12:46:41.460Z,50.62
2022-08-12T12:47:40.659Z,50.62
2022-08-12T12:48:44.316Z,50.62
2022-08-12T12:49:41.043Z,50.62
2022-08-12T12:50:45.141Z,50.62
2022-08-12T12:52:17.905Z,50.62
2022-08-12T12:52:42.741Z,50.62
2022-08-12T12:54:07.984Z,50.62
2022-08-12T12:54:42.866Z,50.62
2022-08-12T12:55:42.017Z,50.62
2022-08-12T12:56:42.556Z,50.62
2022-08-12T12:58:00.414Z,33.75
2022-08-12T12:58:43.849Z,50.62
2022-08-12T12:59:56.908Z,50.62
2022-08-12T13:00:43.883Z,50.62
2022-08-12T13:01:44.095Z,50.62
2022-08-12T13:02:43.651Z,56.25
2022-08-12T13:03:49.371Z,56.25
2022-08-12T13:04:46.208Z,56.25
2022-08-12T13:05:43.751Z,56.25
2022-08-12T13:06:43.934Z,56.25
2022-08-12T13:07:49.295Z,56.25
2022-08-12T13:08:45.313Z,56.25
2022-08-12T13:09:46.651Z,56.25
2022-08-12T13:10:50.366Z,16.88